Flight Track Log - Related Links

Times and Time Zones

All times are in EDT time to prevent confusion due to time zone crossing. See the KAP644 flight status page for this flight to view local times or setup timezone preferences in your user account.

Time Position Orientation Groundspeed Altitude Reporting Facility
EDT Latitude Longitude Course Direction KTS MPH feet Rate Location/Type
Thu 08:08:00 AM 42.3333 -71.0167 200° South 115 132 1,000  Level KA90
Thu 08:09:00 AM 42.3000 -71.0333 200° South 118 136 1,900 750 Climbing KA90
Thu 08:10:00 AM 42.2667 -71.0333 180° South 127 146 2,500 600 Climbing KA90
Thu 08:11:00 AM 42.2333 -71.0333 180° South 129 148 3,100 550 Climbing KA90
Thu 08:12:00 AM 42.2000 -71.0167 160° South 138 159 3,600 250 Climbing KA90
Thu 08:13:00 AM 42.1500 -70.9833 154° Southeast 161 185 3,600  Level KA90
Thu 08:14:00 AM 42.1167 -70.9667 160° South 170 196 3,600  Level KA90
Thu 08:15:00 AM 42.0667 -70.9500 166° South 172 198 3,600  Level KA90
Thu 08:16:00 AM 42.0372 -70.9163 140° Southeast  Level FlightAware Approximate
Thu 08:23:00 AM 41.7918 -70.7599 161° South  Level FlightAware Approximate
Thu 08:24:00 AM 41.7552 -70.7433 161° South  Level FlightAware Approximate
Thu 08:25:00 AM 41.7184 -70.7277 164° South  Level FlightAware Approximate
Thu 08:26:00 AM 41.6812 -70.7138 164° South  Level FlightAware Approximate
Thu 08:27:00 AM 41.6440 -70.6998 164° South  Level FlightAware Approximate
Thu 08:28:00 AM 41.6068 -70.6859 164° South  Level FlightAware Approximate
Thu 08:29:00 AM 41.5696 -70.6719 164° South  Level FlightAware Approximate
Thu 08:30:00 AM 41.5324 -70.6580 164° South  Level FlightAware Approximate
Thu 08:31:00 AM 41.4953 -70.6440 164° South  Level FlightAware Approximate
Thu 08:32:00 AM 41.4581 -70.6299 163° South  Level FlightAware Approximate
Thu 08:33:00 AM 41.4211 -70.6151 163° South  Level FlightAware Approximate
Thu 08:34:00 AM 41.3934 -70.6139 163° South  Level Estimated
Thu 08:35:00 AM 41.3934 -70.6139 163° South  Level Estimated
Thu 08:36:00 AM 41.3934 -70.6139 163° South  Level Estimated
Thu 08:37:00 AM 41.3934 -70.6139 163° South  Level Estimated
Thu 08:38:00 AM 41.3934 -70.6139 163° South  Level Estimated
Thu 08:39:00 AM 41.3934 -70.6139 163° South  Level Estimated
Thu 08:40:00 AM 41.3934 -70.6139 163° South  Level Estimated
Thu 08:41:00 AM 41.3934 -70.6139 163° South  Level Estimated
Thu 08:42:00 AM 41.3934 -70.6139 163° South  Level Estimated
Thu 08:43:00 AM 41.3934 -70.6139 163° South  Level Estimated
Thu 08:44:00 AM 41.3934 -70.6139 163° South  Level Estimated
Thu 08:45:00 AM 41.3934 -70.6139 163° South  Level Estimated
Thu 08:46:00 AM 41.3934 -70.6139 163° South  Level Estimated
Thu 08:47:00 AM 41.3934 -70.6139 163° South  Level Estimated
Thu 08:48:00 AM 41.3934 -70.6139 163° South  Level Estimated
Thu 08:49:00 AM 41.3934 -70.6139 163° South  Level Estimated
Thu 08:50:00 AM 41.3934 -70.6139 163° South  Level Estimated

Login

Don't have an account? Register now (free) for customized features, flight alerts, and more!